Main page
METAR-TAF:

METAR-TAF

Airports :

Orange County Airport

Orange, Texas, United States

latitude: 30-04-09N, longitude: 093-48-13W, elevation: 13 ft

Current weather observation

The report was made 26 minutes ago, at 17:55 UTC
Wind 15 mph from the East with gusts up to 21 mph
Temperature 90°F
Humidity 59%
Pressure 30.13 in. Hg
Visibility: 10 miles
Scattered clouds at a height of 2900 ft

METAR: KORG 201755Z AUTO 10013G18KT 10SM SCT029 32/23 A3013 RMK AO2 T03180231 10321 20263

Time: 13:21 (18:21 UTC)


TAF: missing

Weather observations and forecasts of more than 4000 airports (METAR and TAF reports).

The available stations are represented by yellow and red dots on the map.

Hover mouse over dot to see the name of the station.

Then click to see weather observations and forecasts.

To change the map : click on the green buttons with a black cross to zoom in, on the green button with a dash to zoom out, or on the green arrows for adjacent maps.


METAR-TAF: